KDDC/DDC METAR and TAF weather

Enter ICAO airport designator
Station Type Date Time Source
KDDC METAR 2019/12/08 18:52 UTC NOAA

KDDC 081852Z AUTO 02006KT 10SM CLR 16/M02 A2972 RMK AO2 SLP058 T01561017


Station Type Date Time Source
KDDC Decoded METAR 2019/12/08 18:52 UTC NOAA

DODGE CITY REGIONAL AIRPORT, KS, United States (KDDC) 37-46N 99-58W 789M
Dec 08, 2019 - 01:52 PM EST / 2019.12.08 1852 UTC
Wind: from the NNE (020 degrees) at 7 MPH (6 KT):0
Visibility: 10 mile(s):0
Sky conditions: clear
Temperature: 60.1 F (15.6 C)
Dew Point: 28.9 F (-1.7 C)
Relative Humidity: 30%
Pressure (altimeter): 29.72 in. Hg (1006 hPa)
ob: KDDC 081852Z AUTO 02006KT 10SM CLR 16/M02 A2972 RMK AO2 SLP058 T01561017
cycle: 19

Station Type Date Time Source
KDDC TAF 2019/12/08 18:22 UTC NOAA

TAF KDDC 081720Z 0818/0918 VRB04KT P6SM BKN250
FM091200 35020G28KT P6SM BKN120

Example: see airport list